Cannon Air Force Base
KCVS : now visible

Airfield :











YOU CAN JOIN US ON...

 
LOGIN :

Register | Disclaimer

   EN    FR    IT 

 









Legend :    VFR   Marginal VFR   IFR   Intensive IFR   Very Intensive IFR
Visi :
Ceiling :
>= 8 km
>= 3000ft
5 to 8 km
1000 to 3000 ft
1500m to 5 km
500 to 1000 ft
800 to 1500m
200 to 500 ft
< 800m
< 200 ft
Symbols :   Thunderstorms  Fog  Heavy snow  Heavy precipitations  Wind > 20 kt






- Airport Elevation : 4295 ft


KCVS - Cannon Air Force Base

CURRENT METAR :
  • 281558Z AUTO 08004KT 10SM BKN100 21/05 A3021 RMK AO2 SLP178 T02120047 $

EXPIRED METARs :
  • 281458Z 04008KT 10SM BKN110 19/06 A3020 RMK AO2A SLP175 T01900058 52020 VIRGA E $
  • 281401Z 01008KT 10SM OVC110 18/05 A3020 RMK SLP173 VIRGA E-NE $

TAF TAF KCVS
Valid from the 28 at 10:00 until the 29 at 16:00 UTC


281000Z 2810/2916 04010KT 9999 SCT080 BKN130 QNH3006INS
TEMPO 2810/2815 8000 -SHRA BKN080 OVC120
BECMG 2816/2817 05009KT 9999 NSW SCT080 BKN100 QNH3018INS
BECMG 2820/2821 06008KT 9999 FEW090 QNH3014INS
BECMG 2901/2902 10007KT 9999 SKC QNH3019INS
BECMG 2910/2911 22008KT 9999 SCT080 QNH3030INS TX29/2822Z TN14/2812Z
KZAB FIR / North America



MET'MAP, your aeronautical weather chart ! - Copyright ORBIFLY December 2007 - Disclaimer

ORBIFLY MET'MAP TEAM :

Programming & Development : Alexandra Zaïnal
Concept & original design : Baudouin d'Aumeries
Assistance for programming : Marc-Olivier Méhu
Technical & hardware support : Manuel Goepfert

Contact : metmap@orbifly.com




SOURCES & CREDITS :

   NOAA       Earth
Advisory